Time;durP1;ratioP1;P1;durP2;ratioP2;P2;SDS_P1;SDS_P2;PMS_P1;PMS_P2;Temp;Humidity;BMP_temperature;BMP_pressure;BME280_temperature;BME280_humidity;BME280_pressure;Samples;Min_cycle;Max_cycle;Signal;HPM_P1;HPM_P2
2024/04/10 00:01:05;;;;;;;;;;;;;;;;;;5391415;26;7150;-90
2024/04/10 00:03:31;;;;;;;;;;;;;;;;;;5418892;26;7188;-90
2024/04/10 00:06:05;;;;;;;;;;;;;;;;;;5418511;26;7066;-90
2024/04/10 00:08:35;;;;;;;;;;;;;;;;;;5418482;26;7525;-89
2024/04/10 00:11:02;;;;;;;;;;;;;;;;;;5418730;26;7125;-89
2024/04/10 00:13:29;;;;;;;;;;;;;;;;;;5388703;26;7191;-88
2024/04/10 00:16:07;;;;;;;;;;;;;;;;;;5418389;26;7129;-89
2024/04/10 00:18:36;;;;;;;;;;;;;;;;;;5418375;26;7112;-89
2024/04/10 00:21:02;;;;;;;;;;;;;;;;;;5388859;26;7164;-90
2024/04/10 00:23:29;;;;;;;;;;;;;;;;;;5418613;26;7125;-90
2024/04/10 00:26:03;;;;;;;;;;;;;;;;;;5416931;26;7279;-90
2024/04/10 00:28:32;;;;;;;;;;;;;;;;;;5389466;26;7068;-90
2024/04/10 00:31:04;;;;;;;;;;;;;;;;;;5389057;26;7192;-90
2024/04/10 00:33:32;;;;;;;;;;;;;;;;;;5418407;26;7295;-90
2024/04/10 00:36:01;;;;;;;;;;;;;;;;;;5418122;26;7007;-88
2024/04/10 00:38:29;;;;;;;;;;;;;;;;;;5417771;26;7124;-89
2024/04/10 00:40:57;;;;;;;;;;;;;;;;;;5418104;26;7157;-88
2024/04/10 00:43:23;;;;;;;;;;;;;;;;;;5447991;26;7136;-89
2024/04/10 00:47:45;;;;;;;;;;;;;;;;;;5541284;25;6808;-90
2024/04/10 00:50:11;;;;;;;;;;;;;;;;;;5502872;26;7138;-90
2024/04/10 00:52:37;;;;;;;;;;;;;;;;;;5472854;26;7146;-90
2024/04/10 00:55:04;;;;;;;;;;;;;;;;;;5503022;26;7135;-90
2024/04/10 00:57:30;;;;;;;;;;;;;;;;;;5472274;26;7311;-90
2024/04/10 00:59:55;;;;;;;;;;;;;;;;;;5502557;26;7339;-91
2024/04/10 01:02:28;;;;;;;;;;;;;;;;;;5472321;26;6991;-90
2024/04/10 01:04:54;;;;;;;;;;;;;;;;;;5502843;26;7003;-90
2024/04/10 01:07:22;;;;;;;;;;;;;;;;;;5502192;26;7122;-89
2024/04/10 01:09:50;;;;;;;;;;;;;;;;;;5472134;26;7151;-90
2024/04/10 01:12:26;;;;;;;;;;;;;;;;;;5472811;26;7154;-90
2024/04/10 01:14:55;;;;;;;;;;;;;;;;;;5472220;26;7155;-90
2024/04/10 01:17:29;;;;;;;;;;;;;;;;;;5472365;26;7051;-91
2024/04/10 01:20:07;;;;;;;;;;;;;;;;;;5473020;26;7012;-91
2024/04/10 01:22:35;;;;;;;;;;;;;;;;;;5472159;26;7309;-90
2024/04/10 01:25:00;;;;;;;;;;;;;;;;;;5472202;26;7132;-90
2024/04/10 01:27:28;;;;;;;;;;;;;;;;;;5502232;26;7117;-91
2024/04/10 01:29:54;;;;;;;;;;;;;;;;;;5502558;26;7004;-91
2024/04/10 01:32:23;;;;;;;;;;;;;;;;;;5533444;25;7028;-89
2024/04/10 01:34:51;;;;;;;;;;;;;;;;;;5496860;26;7029;-90
2024/04/10 01:37:19;;;;;;;;;;;;;;;;;;5435819;26;7275;-90
2024/04/10 01:39:47;;;;;;;;;;;;;;;;;;5465603;26;7158;-90
2024/04/10 01:42:13;;;;;;;;;;;;;;;;;;5435760;26;6995;-90
2024/04/10 01:44:44;;;;;;;;;;;;;;;;;;5436729;26;7131;-91
2024/04/10 01:47:10;;;;;;;;;;;;;;;;;;5435207;26;7120;-90
2024/04/10 01:49:35;;;;;;;;;;;;;;;;;;5466244;26;7160;-89
2024/04/10 01:52:03;;;;;;;;;;;;;;;;;;5465671;26;7054;-89
2024/04/10 01:54:29;;;;;;;;;;;;;;;;;;5435693;26;7122;-92
2024/04/10 01:56:55;;;;;;;;;;;;;;;;;;5433138;26;7228;-90
2024/04/10 01:59:21;;;;;;;;;;;;;;;;;;5420138;26;7144;-91
2024/04/10 02:01:49;;;;;;;;;;;;;;;;;;5419359;26;7197;-90
2024/04/10 02:04:15;;;;;;;;;;;;;;;;;;5450206;26;7165;-90
2024/04/10 02:06:43;;;;;;;;;;;;;;;;;;5419918;26;7184;-90
2024/04/10 02:09:11;;;;;;;;;;;;;;;;;;5420321;26;7147;-89
2024/04/10 02:11:39;;;;;;;;;;;;;;;;;;5450236;26;7307;-90
2024/04/10 02:14:05;;;;;;;;;;;;;;;;;;5420340;26;7314;-90
2024/04/10 02:16:34;;;;;;;;;;;;;;;;;;5419638;26;7205;-90
2024/04/10 02:19:02;;;;;;;;;;;;;;;;;;5449801;26;7140;-91
2024/04/10 02:21:29;;;;;;;;;;;;;;;;;;5449396;26;7072;-90
2024/04/10 02:23:57;;;;;;;;;;;;;;;;;;5420427;26;7287;-90
2024/04/10 02:26:32;;;;;;;;;;;;;;;;;;5419758;26;7069;-90
2024/04/10 02:28:59;;;;;;;;;;;;;;;;;;5419960;26;7154;-90
2024/04/10 02:31:25;;;;;;;;;;;;;;;;;;5419800;26;7153;-90
2024/04/10 02:33:51;;;;;;;;;;;;;;;;;;5419897;26;7139;-89
2024/04/10 02:36:19;;;;;;;;;;;;;;;;;;5419314;26;7141;-90
2024/04/10 02:38:45;;;;;;;;;;;;;;;;;;5419710;26;6985;-90
2024/04/10 02:41:13;;;;;;;;;;;;;;;;;;5419562;26;7276;-91
2024/04/10 02:43:41;;;;;;;;;;;;;;;;;;5450146;26;7262;-90
2024/04/10 02:46:08;;;;;;;;;;;;;;;;;;5449136;26;7195;-90
2024/04/10 02:48:36;;;;;;;;;;;;;;;;;;5419788;26;7267;-90
2024/04/10 02:51:06;;;;;;;;;;;;;;;;;;5449129;26;7196;-90
2024/04/10 02:53:31;;;;;;;;;;;;;;;;;;5419064;26;7223;-90
2024/04/10 02:56:02;;;;;;;;;;;;;;;;;;5449249;26;7132;-90
2024/04/10 02:58:28;;;;;;;;;;;;;;;;;;5418802;26;7200;-89
2024/04/10 03:01:00;;;;;;;;;;;;;;;;;;5418930;26;7132;-90
2024/04/10 03:03:26;;;;;;;;;;;;;;;;;;5448894;26;7034;-89
2024/04/10 03:06:01;;;;;;;;;;;;;;;;;;5418717;26;7159;-89
2024/04/10 03:08:26;;;;;;;;;;;;;;;;;;5418981;26;7155;-90
2024/04/10 03:10:52;;;;;;;;;;;;;;;;;;5418542;26;7118;-90
2024/04/10 03:13:18;;;;;;;;;;;;;;;;;;5418553;26;7121;-89
2024/04/10 03:15:44;;;;;;;;;;;;;;;;;;5419257;26;7129;-89
2024/04/10 03:18:10;;;;;;;;;;;;;;;;;;5419020;26;6977;-89
2024/04/10 03:20:39;;;;;;;;;;;;;;;;;;5418979;26;7257;-89
2024/04/10 03:23:05;;;;;;;;;;;;;;;;;;5418251;26;7179;-90
2024/04/10 03:25:33;;;;;;;;;;;;;;;;;;5418393;26;7560;-89
2024/04/10 03:28:01;;;;;;;;;;;;;;;;;;5419075;26;7001;-89
2024/04/10 03:30:27;;;;;;;;;;;;;;;;;;5418612;26;7127;-89
2024/04/10 03:32:54;;;;;;;;;;;;;;;;;;5448308;26;7252;-89
2024/04/10 03:35:19;;;;;;;;;;;;;;;;;;5383637;26;7225;-90
2024/04/10 03:37:46;;;;;;;;;;;;;;;;;;5383047;26;7201;-90
2024/04/10 03:40:12;;;;;;;;;;;;;;;;;;5383082;26;6996;-90
2024/04/10 03:42:41;;;;;;;;;;;;;;;;;;5382985;26;7140;-90
2024/04/10 03:45:10;;;;;;;;;;;;;;;;;;5411733;26;7001;-89
2024/04/10 03:47:38;;;;;;;;;;;;;;;;;;5411585;26;7221;-90
2024/04/10 03:50:06;;;;;;;;;;;;;;;;;;5382666;26;7270;-90
2024/04/10 03:52:34;;;;;;;;;;;;;;;;;;5412680;26;6999;-90
2024/04/10 03:55:00;;;;;;;;;;;;;;;;;;5383108;26;7172;-89
2024/04/10 03:57:28;;;;;;;;;;;;;;;;;;5382994;26;7940;-89
2024/04/10 03:59:53;;;;;;;;;;;;;;;;;;5412429;26;7275;-89
2024/04/10 04:02:24;;;;;;;;;;;;;;;;;;5383290;26;7175;-90
2024/04/10 04:04:53;;;;;;;;;;;;;;;;;;5383537;26;7122;-90
2024/04/10 04:07:18;;;;;;;;;;;;;;;;;;5382786;26;7267;-90
2024/04/10 04:09:44;;;;;;;;;;;;;;;;;;5383121;26;6991;-90
2024/04/10 04:12:10;;;;;;;;;;;;;;;;;;5382873;26;7118;-89
2024/04/10 04:14:37;;;;;;;;;;;;;;;;;;5382613;26;7271;-90
2024/04/10 04:17:06;;;;;;;;;;;;;;;;;;5382321;26;7129;-90
2024/04/10 04:19:31;;;;;;;;;;;;;;;;;;5382772;26;7233;-90
2024/04/10 04:22:01;;;;;;;;;;;;;;;;;;5382687;26;7136;-90
2024/04/10 04:24:26;;;;;;;;;;;;;;;;;;5382555;26;7061;-90
2024/04/10 04:26:52;;;;;;;;;;;;;;;;;;5382544;26;7085;-91
2024/04/10 04:29:20;;;;;;;;;;;;;;;;;;5382350;26;7158;-90
2024/04/10 04:31:51;;;;;;;;;;;;;;;;;;5382807;26;7124;-90
2024/04/10 04:34:17;;;;;;;;;;;;;;;;;;5411431;26;7010;-90
2024/04/10 04:36:43;;;;;;;;;;;;;;;;;;5411389;26;8102;-90
2024/04/10 04:39:09;;;;;;;;;;;;;;;;;;5382287;26;7341;-89
2024/04/10 04:41:37;;;;;;;;;;;;;;;;;;5382402;26;7137;-90
2024/04/10 04:44:06;;;;;;;;;;;;;;;;;;5382320;26;7065;-90
2024/04/10 04:46:32;;;;;;;;;;;;;;;;;;5381508;26;7005;-90
2024/04/10 04:48:58;;;;;;;;;;;;;;;;;;5382129;26;7125;-89
2024/04/10 04:51:24;;;;;;;;;;;;;;;;;;5382002;26;7376;-90
2024/04/10 04:53:52;;;;;;;;;;;;;;;;;;5381905;26;7291;-89
2024/04/10 04:56:18;;;;;;;;;;;;;;;;;;5381887;26;6995;-89
2024/04/10 04:58:49;;;;;;;;;;;;;;;;;;5382619;26;7128;-89
2024/04/10 05:01:17;;;;;;;;;;;;;;;;;;5411088;26;7241;-89
2024/04/10 05:06:29;;;;;;;;;;;;;;;;;;5411269;26;7143;-89
2024/04/10 05:08:58;;;;;;;;;;;;;;;;;;5382674;26;7068;-89
2024/04/10 05:11:24;;;;;;;;;;;;;;;;;;5381164;26;7290;-90
2024/04/10 05:13:51;;;;;;;;;;;;;;;;;;5410743;26;7271;-89
2024/04/10 05:16:20;;;;;;;;;;;;;;;;;;5382174;26;7135;-89
2024/04/10 05:18:46;;;;;;;;;;;;;;;;;;5381224;26;7288;-89
2024/04/10 05:21:14;;;;;;;;;;;;;;;;;;5381347;26;7171;-90
2024/04/10 05:23:43;;;;;;;;;;;;;;;;;;5381697;26;7128;-89
2024/04/10 05:26:09;;;;;;;;;;;;;;;;;;5380670;26;7077;-89
2024/04/10 05:28:34;;;;;;;;;;;;;;;;;;5380940;26;7060;-90
2024/04/10 05:31:04;;;;;;;;;;;;;;;;;;5380890;26;7110;-90
2024/04/10 05:33:30;;;;;;;;;;;;;;;;;;5382815;26;7125;-90
2024/04/10 05:36:01;;;;;;;;;;;;;;;;;;5384575;26;7169;-89
2024/04/10 05:38:29;;;;;;;;;;;;;;;;;;5384778;26;7254;-90
2024/04/10 05:40:56;;;;;;;;;;;;;;;;;;5384113;26;7189;-88
2024/04/10 05:43:23;;;;;;;;;;;;;;;;;;5414005;26;7194;-90
2024/04/10 05:45:59;;;;;;;;;;;;;;;;;;5404749;26;7053;-91
2024/04/10 05:48:25;;;;;;;;;;;;;;;;;;5420332;26;7114;-90
2024/04/10 05:50:58;;;;;;;;;;;;;;;;;;5450089;26;7125;-89
2024/04/10 05:53:33;;;;;;;;;;;;;;;;;;5450604;26;7107;-91
2024/04/10 05:56:04;;;;;;;;;;;;;;;;;;5419781;26;7110;-89
2024/04/10 05:58:31;;;;;;;;;;;;;;;;;;5419122;26;7081;-89
2024/04/10 06:00:57;;;;;;;;;;;;;;;;;;5419449;26;7149;-90
2024/04/10 06:03:22;;;;;;;;;;;;;;;;;;5419169;26;7151;-90
2024/04/10 06:05:48;;;;;;;;;;;;;;;;;;5419483;26;7306;-90
2024/04/10 06:08:19;;;;;;;;;;;;;;;;;;5419496;26;6994;-88
2024/04/10 06:10:51;;;;;;;;;;;;;;;;;;5448853;26;7114;-89
2024/04/10 06:13:19;;;;;;;;;;;;;;;;;;5419128;26;7256;-89
2024/04/10 06:16:04;;;;;;;;;;;;;;;;;;5449834;26;6967;-91
2024/04/10 06:18:31;;;;;;;;;;;;;;;;;;5419342;26;7005;-89
2024/04/10 06:21:00;;;;;;;;;;;;;;;;;;5419022;26;7135;-90
2024/04/10 06:23:28;;;;;;;;;;;;;;;;;;5449412;26;7122;-89
2024/04/10 06:25:54;;;;;;;;;;;;;;;;;;5419280;26;7157;-89
2024/04/10 06:28:21;;;;;;;;;;;;;;;;;;5418643;26;7267;-90
2024/04/10 06:30:50;;;;;;;;;;;;;;;;;;5418889;26;7137;-89
2024/04/10 06:33:18;;;;;;;;;;;;;;;;;;5418880;26;7142;-90
2024/04/10 06:35:43;;;;;;;;;;;;;;;;;;5448872;26;7105;-89
2024/04/10 06:38:14;;;;;;;;;;;;;;;;;;5419939;26;7288;-90
2024/04/10 06:40:41;;;;;;;;;;;;;;;;;;5419040;26;6976;-90
2024/04/10 06:43:08;;;;;;;;;;;;;;;;;;5418722;26;7179;-89
2024/04/10 06:45:36;;;;;;;;;;;;;;;;;;5419017;26;6971;-90
2024/04/10 06:48:03;;;;;;;;;;;;;;;;;;5419401;26;7278;-90
2024/04/10 06:50:31;;;;;;;;;;;;;;;;;;5418953;26;7240;-89
2024/04/10 06:52:57;;;;;;;;;;;;;;;;;;5419023;26;7045;-88
2024/04/10 06:55:22;;;;;;;;;;;;;;;;;;5418608;26;7330;-89
2024/04/10 06:57:51;;;;;;;;;;;;;;;;;;5418252;26;7038;-89
2024/04/10 07:00:17;;;;;;;;;;;;;;;;;;5418175;26;7149;-90
2024/04/10 07:02:43;;;;;;;;;;;;;;;;;;5418209;26;8082;-90
2024/04/10 07:05:09;;;;;;;;;;;;;;;;;;5418631;26;7087;-90
2024/04/10 07:07:38;;;;;;;;;;;;;;;;;;5454630;26;7134;-91
2024/04/10 07:10:05;;;;;;;;;;;;;;;;;;5454010;26;6979;-89
2024/04/10 07:12:32;;;;;;;;;;;;;;;;;;5453043;26;7000;-90
2024/04/10 07:15:02;;;;;;;;;;;;;;;;;;5454312;26;7002;-89
2024/04/10 07:17:31;;;;;;;;;;;;;;;;;;5454591;26;7003;-90
2024/04/10 07:20:03;;;;;;;;;;;;;;;;;;5454216;26;7142;-89
2024/04/10 07:22:29;;;;;;;;;;;;;;;;;;5454421;26;7003;-90
2024/04/10 07:24:55;;;;;;;;;;;;;;;;;;5453939;26;7261;-90
2024/04/10 07:27:21;;;;;;;;;;;;;;;;;;5453750;26;7062;-90
2024/04/10 07:29:56;;;;;;;;;;;;;;;;;;5454083;26;7024;-90
2024/04/10 07:32:25;;;;;;;;;;;;;;;;;;5454100;26;7200;-90
2024/04/10 07:34:53;;;;;;;;;;;;;;;;;;5483944;26;7091;-91
2024/04/10 07:37:19;;;;;;;;;;;;;;;;;;5454225;26;7299;-89
2024/04/10 07:39:55;;;;;;;;;;;;;;;;;;5453687;26;7189;-89
2024/04/10 07:42:25;;;;;;;;;;;;;;;;;;5453864;26;7118;-90
2024/04/10 07:44:53;;;;;;;;;;;;;;;;;;5454392;26;7094;-90
2024/04/10 07:47:27;;;;;;;;;;;;;;;;;;5453228;26;7349;-89
2024/04/10 07:49:53;;;;;;;;;;;;;;;;;;5453806;26;7048;-90
2024/04/10 07:52:27;;;;;;;;;;;;;;;;;;5454070;26;7072;-90
2024/04/10 07:54:56;;;;;;;;;;;;;;;;;;5453955;26;7016;-90
2024/04/10 07:57:26;;;;;;;;;;;;;;;;;;5452839;26;7122;-91
2024/04/10 07:59:55;;;;;;;;;;;;;;;;;;5453855;26;7302;-91
2024/04/10 08:02:24;;;;;;;;;;;;;;;;;;5483551;26;7193;-90
2024/04/10 08:04:50;;;;;;;;;;;;;;;;;;5454321;26;7120;-90
2024/04/10 08:07:23;;;;;;;;;;;;;;;;;;5484086;26;7144;-90
2024/04/10 08:09:56;;;;;;;;;;;;;;;;;;5453252;26;7136;-90
2024/04/10 08:12:24;;;;;;;;;;;;;;;;;;5483964;26;7398;-90
2024/04/10 08:14:55;;;;;;;;;;;;;;;;;;5453738;26;7072;-90
2024/04/10 08:17:29;;;;;;;;;;;;;;;;;;5454203;26;7147;-90
2024/04/10 08:19:56;;;;;;;;;;;;;;;;;;5453588;26;7078;-90
2024/04/10 08:22:35;;;;;;;;;;;;;;;;;;5453842;26;6997;-89
2024/04/10 08:25:01;;;;;;;;;;;;;;;;;;5453495;26;7068;-90
2024/04/10 08:27:30;;;;;;;;;;;;;;;;;;5452693;26;7010;-88
2024/04/10 08:29:58;;;;;;;;;;;;;;;;;;5483415;26;7061;-88
2024/04/10 08:32:29;;;;;;;;;;;;;;;;;;5483372;26;7053;-89
2024/04/10 08:35:10;;;;;;;;;;;;;;;;;;5483094;26;6991;-89
2024/04/10 08:37:36;;;;;;;;;;;;;;;;;;5453118;26;7193;-89
2024/04/10 08:40:07;;;;;;;;;;;;;;;;;;5452821;26;7161;-89
2024/04/10 08:42:43;;;;;;;;;;;;;;;;;;5452763;26;7193;-89
2024/04/10 08:45:19;;;;;;;;;;;;;;;;;;5452958;26;7149;-89
2024/04/10 08:47:48;;;;;;;;;;;;;;;;;;5453489;26;7134;-89
2024/04/10 08:50:16;;;;;;;;;;;;;;;;;;5482666;26;7264;-90
2024/04/10 08:52:48;;;;;;;;;;;;;;;;;;5454014;26;7049;-88
2024/04/10 08:55:17;;;;;;;;;;;;;;;;;;5482481;26;7070;-89
2024/04/10 08:57:46;;;;;;;;;;;;;;;;;;5451665;26;7135;-89
2024/04/10 09:00:17;;;;;;;;;;;;;;;;;;5452386;26;7043;-89
2024/04/10 09:02:46;;;;;;;;;;;;;;;;;;5482635;26;7006;-89
2024/04/10 09:05:34;;;;;;;;;;;;;;;;;;5483044;26;7203;-89
2024/04/10 09:08:02;;;;;;;;;;;;;;;;;;5455403;26;7126;-89
2024/04/10 09:10:32;;;;;;;;;;;;;;;;;;5486340;26;7054;-89
2024/04/10 09:13:23;;;;;;;;;;;;;;;;;;5485955;26;6993;-88
2024/04/10 09:16:02;;;;;;;;;;;;;;;;;;5456820;26;7302;-89
2024/04/10 09:18:30;;;;;;;;;;;;;;;;;;5455473;26;7255;-89
2024/04/10 09:21:10;;;;;;;;;;;;;;;;;;5455726;26;7000;-89
2024/04/10 09:23:40;;;;;;;;;;;;;;;;;;5456039;26;7141;-89
2024/04/10 09:26:16;;;;;;;;;;;;;;;;;;5455402;26;6997;-88
2024/04/10 09:28:44;;;;;;;;;;;;;;;;;;5456457;26;7049;-89
2024/04/10 09:31:21;;;;;;;;;;;;;;;;;;5485899;26;7255;-89
2024/04/10 09:33:51;;;;;;;;;;;;;;;;;;5456115;26;7042;-90
2024/04/10 09:36:33;;;;;;;;;;;;;;;;;;5485728;26;7377;-89
2024/04/10 09:39:03;;;;;;;;;;;;;;;;;;5455878;26;7305;-89
2024/04/10 09:41:32;;;;;;;;;;;;;;;;;;5455414;26;7192;-90
2024/04/10 09:43:59;;;;;;;;;;;;;;;;;;5455366;26;8230;-88
2024/04/10 09:46:35;;;;;;;;;;;;;;;;;;5454724;26;7176;-89
2024/04/10 09:49:11;;;;;;;;;;;;;;;;;;5455818;26;7053;-89
2024/04/10 09:51:45;;;;;;;;;;;;;;;;;;5454615;26;7106;-89
2024/04/10 09:54:11;;;;;;;;;;;;;;;;;;5455874;26;6981;-89
2024/04/10 09:56:44;;;;;;;;;;;;;;;;;;5485934;26;7011;-89
2024/04/10 09:59:15;;;;;;;;;;;;;;;;;;5455531;26;7203;-89
2024/04/10 10:01:56;;;;;;;;;;;;;;;;;;;;;
2024/04/10 10:04:26;;;;;;;;;;;;;;;;;;5484795;26;7329;-88
2024/04/10 10:07:00;;;;;;;;;;;;;;;;;;5454880;26;6996;-89
2024/04/10 10:09:31;;;;;;;;;;;;;;;;;;5485449;26;8046;-89
2024/04/10 10:12:10;;;;;;;;;;;;;;;;;;5455788;26;7057;-89
2024/04/10 10:14:53;;;;;;;;;;;;;;;;;;5455886;26;7031;-88
2024/04/10 10:17:28;;;;;;;;;;;;;;;;;;5454884;26;7213;-88
2024/04/10 10:19:54;;;;;;;;;;;;;;;;;;5484834;26;7134;-85
2024/04/10 10:22:36;;;;;;;;;;;;;;;;;;5457836;26;7124;-87
2024/04/10 10:25:15;;;;;;;;;;;;;;;;;;5453998;26;7065;-86
2024/04/10 10:28:14;;;;;;;;;;;;;;;;;;5485060;26;7064;-87
2024/04/10 10:30:45;;;;;;;;;;;;;;;;;;5464990;26;6986;-86
2024/04/10 10:33:45;;;;;;;;;;;;;;;;;;5454934;26;7019;-86
2024/04/10 10:36:30;;;;;;;;;;;;;;;;;;5515207;26;7073;-87
2024/04/10 10:39:18;;;;;;;;;;;;;;;;;;5483785;26;7275;-87
2024/04/10 10:41:44;;;;;;;;;;;;;;;;;;5454610;26;7134;-87
2024/04/10 10:44:29;;;;;;;;;;;;;;;;;;5454903;26;7142;-86
2024/04/10 10:46:59;;;;;;;;;;;;;;;;;;5453783;26;7138;-86
2024/04/10 10:49:27;;;;;;;;;;;;;;;;;;5454526;26;7029;-85
2024/04/10 10:51:55;;;;;;;;;;;;;;;;;;5453816;26;7028;-86
2024/04/10 10:54:28;;;;;;;;;;;;;;;;;;5455995;26;7048;-85
2024/04/10 10:57:02;;;;;;;;;;;;;;;;;;5453943;26;6973;-86
2024/04/10 10:59:35;;;;;;;;;;;;;;;;;;5453910;26;8194;-86
2024/04/10 11:02:16;;;;;;;;;;;;;;;;;;5484540;26;6989;-86
2024/04/10 11:04:57;;;;;;;;;;;;;;;;;;5484888;26;7043;-86
2024/04/10 11:07:24;;;;;;;;;;;;;;;;;;5454132;26;6999;-88
2024/04/10 11:10:06;;;;;;;;;;;;;;;;;;5452523;26;7307;-87
2024/04/10 11:12:42;;;;;;;;;;;;;;;;;;;;;
2024/04/10 11:15:12;;;;;;;;;;;;;;;;;;5483959;26;6988;-87
2024/04/10 11:17:40;;;;;;;;;;;;;;;;;;5453396;26;7179;-87
2024/04/10 11:20:15;;;;;;;;;;;;;;;;;;5453764;26;7294;-87
2024/04/10 11:22:48;;;;;;;;;;;;;;;;;;5513237;26;7159;-88
2024/04/10 11:25:17;;;;;;;;;;;;;;;;;;5453851;26;7311;-87
2024/04/10 11:27:59;;;;;;;;;;;;;;;;;;5483901;26;6982;-88
2024/04/10 11:30:32;;;;;;;;;;;;;;;;;;5452205;26;7052;-88
2024/04/10 11:32:58;;;;;;;;;;;;;;;;;;5453677;26;7057;-86
2024/04/10 11:35:45;;;;;;;;;;;;;;;;;;5484426;26;7067;-87
2024/04/10 11:38:10;;;;;;;;;;;;;;;;;;5453255;26;6979;-87
2024/04/10 11:40:46;;;;;;;;;;;;;;;;;;5453528;26;7058;-87
2024/04/10 11:43:17;;;;;;;;;;;;;;;;;;5454288;26;7014;-87
2024/04/10 11:45:49;;;;;;;;;;;;;;;;;;5454055;26;7063;-87
2024/04/10 11:48:22;;;;;;;;;;;;;;;;;;5454005;26;7122;-88
2024/04/10 11:50:48;;;;;;;;;;;;;;;;;;5453905;26;7076;-88
2024/04/10 11:53:14;;;;;;;;;;;;;;;;;;5453295;26;7284;-87
2024/04/10 11:55:40;;;;;;;;;;;;;;;;;;5453245;26;6985;-88
2024/04/10 11:58:08;;;;;;;;;;;;;;;;;;5453924;26;7081;-88
2024/04/10 12:00:34;;;;;;;;;;;;;;;;;;5453616;26;6983;-88
2024/04/10 12:03:00;;;;;;;;;;;;;;;;;;5453748;26;7321;-87
2024/04/10 12:05:28;;;;;;;;;;;;;;;;;;5483980;26;6998;-87
2024/04/10 12:07:56;;;;;;;;;;;;;;;;;;5453213;26;7060;-88
2024/04/10 12:10:24;;;;;;;;;;;;;;;;;;5453639;26;6981;-89
2024/04/10 12:12:50;;;;;;;;;;;;;;;;;;5453204;26;7338;-89
2024/04/10 12:15:16;;;;;;;;;;;;;;;;;;5453466;26;7133;-88
2024/04/10 12:17:42;;;;;;;;;;;;;;;;;;5453300;26;7104;-87
2024/04/10 12:20:10;;;;;;;;;;;;;;;;;;5483734;26;7132;-88
2024/04/10 12:22:39;;;;;;;;;;;;;;;;;;5453465;26;7027;-87
2024/04/10 12:25:05;;;;;;;;;;;;;;;;;;5453659;26;7007;-91
2024/04/10 12:27:31;;;;;;;;;;;;;;;;;;5453145;26;7029;-87
2024/04/10 12:29:59;;;;;;;;;;;;;;;;;;5453806;26;7196;-88
2024/04/10 12:32:27;;;;;;;;;;;;;;;;;;5453031;26;7158;-90
2024/04/10 12:34:58;;;;;;;;;;;;;;;;;;5453157;26;7146;-90
2024/04/10 12:40:11;;;;;;;;;;;;;;;;;;5483410;26;7049;-89
2024/04/10 12:42:40;;;;;;;;;;;;;;;;;;5452883;26;7128;-89
2024/04/10 12:45:08;;;;;;;;;;;;;;;;;;5453334;26;7251;-89
2024/04/10 12:47:36;;;;;;;;;;;;;;;;;;5452875;26;7306;-89
2024/04/10 12:50:02;;;;;;;;;;;;;;;;;;5453364;26;7205;-89
2024/04/10 12:52:28;;;;;;;;;;;;;;;;;;5452434;26;7073;-89
2024/04/10 12:55:02;;;;;;;;;;;;;;;;;;5483047;26;7218;-89
2024/04/10 12:57:28;;;;;;;;;;;;;;;;;;5452703;26;7150;-88
2024/04/10 12:59:54;;;;;;;;;;;;;;;;;;5483163;26;7343;-88
2024/04/10 13:02:24;;;;;;;;;;;;;;;;;;5452985;26;7000;-89
2024/04/10 13:04:52;;;;;;;;;;;;;;;;;;5452356;26;7140;-89
2024/04/10 13:07:18;;;;;;;;;;;;;;;;;;5452438;26;7094;-89
2024/04/10 13:09:49;;;;;;;;;;;;;;;;;;5452866;26;6988;-89
2024/04/10 13:12:16;;;;;;;;;;;;;;;;;;5452868;26;7208;-88
2024/04/10 13:15:00;;;;;;;;;;;;;;;;;;5453910;26;7119;-90
2024/04/10 13:17:35;;;;;;;;;;;;;;;;;;5452167;26;7020;-90
2024/04/10 13:20:04;;;;;;;;;;;;;;;;;;5452776;26;7014;-91
2024/04/10 13:22:30;;;;;;;;;;;;;;;;;;5452458;26;7516;-89
2024/04/10 13:24:56;;;;;;;;;;;;;;;;;;5452749;26;7006;-89
2024/04/10 13:27:25;;;;;;;;;;;;;;;;;;5451772;26;7070;-89
2024/04/10 13:29:50;;;;;;;;;;;;;;;;;;5452492;26;8353;-90
2024/04/10 13:32:16;;;;;;;;;;;;;;;;;;5452532;26;7244;-89
2024/04/10 13:34:47;;;;;;;;;;;;;;;;;;5452726;26;7136;-89
2024/04/10 13:37:23;;;;;;;;;;;;;;;;;;;;;
2024/04/10 13:39:49;;;;;;;;;;;;;;;;;;5483411;26;7073;-89
2024/04/10 13:42:17;;;;;;;;;;;;;;;;;;5482695;26;7057;-89
2024/04/10 13:44:46;;;;;;;;;;;;;;;;;;5453153;26;7523;-91
2024/04/10 13:47:15;;;;;;;;;;;;;;;;;;5445341;26;6995;-89
2024/04/10 13:49:54;;;;;;;;;;;;;;;;;;5416530;26;7143;-90
2024/04/10 13:52:21;;;;;;;;;;;;;;;;;;5415682;26;8151;-90
2024/04/10 13:54:46;;;;;;;;;;;;;;;;;;5418696;26;6998;-89
2024/04/10 13:57:23;;;;;;;;;;;;;;;;;;5422466;26;7137;-89
2024/04/10 13:59:51;;;;;;;;;;;;;;;;;;5420261;26;7127;-90
2024/04/10 14:02:29;;;;;;;;;;;;;;;;;;5419651;26;7139;-88
2024/04/10 14:05:08;;;;;;;;;;;;;;;;;;5421390;26;7122;-89
2024/04/10 14:07:48;;;;;;;;;;;;;;;;;;5449618;26;7093;-89
2024/04/10 14:10:19;;;;;;;;;;;;;;;;;;5418814;26;7178;-89
2024/04/10 14:12:47;;;;;;;;;;;;;;;;;;5419476;26;7039;-91
2024/04/10 14:15:23;;;;;;;;;;;;;;;;;;5420075;26;7017;-89
2024/04/10 14:17:50;;;;;;;;;;;;;;;;;;5419170;26;6987;-90
2024/04/10 14:20:19;;;;;;;;;;;;;;;;;;5419778;26;6987;-89
2024/04/10 14:22:47;;;;;;;;;;;;;;;;;;5419486;26;6999;-88
2024/04/10 14:25:17;;;;;;;;;;;;;;;;;;5419894;26;7028;-88
2024/04/10 14:27:48;;;;;;;;;;;;;;;;;;5449553;26;7130;-90
2024/04/10 14:30:18;;;;;;;;;;;;;;;;;;5420084;26;8052;-90
2024/04/10 14:32:46;;;;;;;;;;;;;;;;;;5419851;26;7224;-90
2024/04/10 14:35:15;;;;;;;;;;;;;;;;;;5420089;26;7037;-92
2024/04/10 14:37:41;;;;;;;;;;;;;;;;;;5420950;26;7144;-93
2024/04/10 14:40:15;;;;;;;;;;;;;;;;;;5419993;26;7369;-89
2024/04/10 14:42:45;;;;;;;;;;;;;;;;;;5419313;26;7049;-88
2024/04/10 14:45:11;;;;;;;;;;;;;;;;;;5419299;26;7037;-90
2024/04/10 14:47:52;;;;;;;;;;;;;;;;;;;;;
2024/04/10 14:50:28;;;;;;;;;;;;;;;;;;5451235;26;7059;-90
2024/04/10 14:52:59;;;;;;;;;;;;;;;;;;5450055;26;7486;-91
2024/04/10 14:55:25;;;;;;;;;;;;;;;;;;5419683;26;7003;-92
2024/04/10 14:57:51;;;;;;;;;;;;;;;;;;5420058;26;7108;-92
2024/04/10 15:00:19;;;;;;;;;;;;;;;;;;5420275;26;7549;-93
2024/04/10 15:02:50;;;;;;;;;;;;;;;;;;5449931;26;7133;-91
2024/04/10 15:05:16;;;;;;;;;;;;;;;;;;5419519;26;7161;-92
2024/04/10 15:07:57;;;;;;;;;;;;;;;;;;5449560;26;7686;-91
2024/04/10 15:10:26;;;;;;;;;;;;;;;;;;5419622;26;7002;-90
2024/04/10 15:12:54;;;;;;;;;;;;;;;;;;5419836;26;7188;-92
2024/04/10 15:15:22;;;;;;;;;;;;;;;;;;5419456;26;7151;-91
2024/04/10 15:17:50;;;;;;;;;;;;;;;;;;5418881;26;7173;-90
2024/04/10 15:20:21;;;;;;;;;;;;;;;;;;5419357;26;7197;-90
2024/04/10 15:22:49;;;;;;;;;;;;;;;;;;5419289;26;7002;-89
2024/04/10 15:25:15;;;;;;;;;;;;;;;;;;5419232;26;7049;-90
2024/04/10 15:27:43;;;;;;;;;;;;;;;;;;5419438;26;7134;-90
2024/04/10 15:30:17;;;;;;;;;;;;;;;;;;5419057;26;7181;-90
2024/04/10 15:32:45;;;;;;;;;;;;;;;;;;5418132;26;6996;-90
2024/04/10 15:35:11;;;;;;;;;;;;;;;;;;5418639;26;7207;-90
2024/04/10 15:37:37;;;;;;;;;;;;;;;;;;5419131;26;7371;-91
2024/04/10 15:40:03;;;;;;;;;;;;;;;;;;5418874;26;7045;-92
2024/04/10 15:42:28;;;;;;;;;;;;;;;;;;5418759;26;7266;-90
2024/04/10 15:44:54;;;;;;;;;;;;;;;;;;5448974;26;7212;-91
2024/04/10 15:47:20;;;;;;;;;;;;;;;;;;5418319;26;7133;-90
2024/04/10 15:49:48;;;;;;;;;;;;;;;;;;5418711;26;7144;-91
2024/04/10 15:52:18;;;;;;;;;;;;;;;;;;5419136;26;6997;-91
2024/04/10 15:54:46;;;;;;;;;;;;;;;;;;5448653;26;7017;-90
2024/04/10 15:57:12;;;;;;;;;;;;;;;;;;5448578;26;6988;-90
2024/04/10 15:59:41;;;;;;;;;;;;;;;;;;5418339;26;7138;-90
2024/04/10 16:02:09;;;;;;;;;;;;;;;;;;5418213;26;7216;-90
2024/04/10 16:04:35;;;;;;;;;;;;;;;;;;5418489;26;7140;-90
2024/04/10 16:07:02;;;;;;;;;;;;;;;;;;5448232;26;7310;-89
2024/04/10 16:09:29;;;;;;;;;;;;;;;;;;5418511;26;7128;-89
2024/04/10 16:11:55;;;;;;;;;;;;;;;;;;5418339;26;7150;-91
2024/04/10 16:14:25;;;;;;;;;;;;;;;;;;5418947;26;6981;-90
2024/04/10 16:16:53;;;;;;;;;;;;;;;;;;5447032;26;7165;-88
2024/04/10 16:19:26;;;;;;;;;;;;;;;;;;5420695;26;7203;-90
2024/04/10 16:21:52;;;;;;;;;;;;;;;;;;5418396;26;7132;-90
2024/04/10 16:24:20;;;;;;;;;;;;;;;;;;5418390;26;7148;-89
2024/04/10 16:26:46;;;;;;;;;;;;;;;;;;5447999;26;6997;-90
2024/04/10 16:29:14;;;;;;;;;;;;;;;;;;5418178;26;7263;-91
2024/04/10 16:31:40;;;;;;;;;;;;;;;;;;5417653;26;7193;-90
2024/04/10 16:34:06;;;;;;;;;;;;;;;;;;5418252;26;7196;-89
2024/04/10 16:36:40;;;;;;;;;;;;;;;;;;5418547;26;6990;-89
2024/04/10 16:39:09;;;;;;;;;;;;;;;;;;5418425;26;7122;-91
2024/04/10 16:41:37;;;;;;;;;;;;;;;;;;5418530;26;7154;-91
2024/04/10 16:44:07;;;;;;;;;;;;;;;;;;5418409;26;8298;-89
2024/04/10 16:46:41;;;;;;;;;;;;;;;;;;5418279;26;7210;-90
2024/04/10 16:49:07;;;;;;;;;;;;;;;;;;5417978;26;7150;-90
2024/04/10 16:51:35;;;;;;;;;;;;;;;;;;5418206;26;7155;-89
2024/04/10 16:54:03;;;;;;;;;;;;;;;;;;5418954;26;7295;-92
2024/04/10 16:56:29;;;;;;;;;;;;;;;;;;5417397;26;8116;-89
2024/04/10 16:58:58;;;;;;;;;;;;;;;;;;5417776;26;7129;-90
2024/04/10 17:01:24;;;;;;;;;;;;;;;;;;5419455;26;7115;-90
2024/04/10 17:03:50;;;;;;;;;;;;;;;;;;5422513;26;7431;-88
2024/04/10 17:06:15;;;;;;;;;;;;;;;;;;5447550;26;7000;-89
2024/04/10 17:08:41;;;;;;;;;;;;;;;;;;5417383;26;7143;-89
2024/04/10 17:11:16;;;;;;;;;;;;;;;;;;5417715;26;7105;-91
2024/04/10 17:13:42;;;;;;;;;;;;;;;;;;5417444;26;7147;-89
2024/04/10 17:16:10;;;;;;;;;;;;;;;;;;5417481;26;7289;-88
2024/04/10 17:24:11;;;;;;;;;;;;;;;;;;5447165;26;7005;-89
2024/04/10 17:26:41;;;;;;;;;;;;;;;;;;5446253;26;7002;-89
2024/04/10 17:29:10;;;;;;;;;;;;;;;;;;5419601;26;7300;-89
2024/04/10 17:31:38;;;;;;;;;;;;;;;;;;5436092;26;7142;-89
2024/04/10 17:34:07;;;;;;;;;;;;;;;;;;5420355;26;7134;-89